Time;durP1;ratioP1;P1;durP2;ratioP2;P2;SDS_P1;SDS_P2;PMS_P1;PMS_P2;Temp;Humidity;BMP_temperature;BMP_pressure;BME280_temperature;BME280_humidity;BME280_pressure;Samples;Min_cycle;Max_cycle;Signal;HPM_P1;HPM_P2
2023/01/11 00:00:55;;;;;;;1.67;1.52;;;;;;;4.47;66.30;94308.41;5096840;28;20216;-73
2023/01/11 00:03:23;;;;;;;1.00;1.00;;;;;;;4.49;66.00;94311.56;5078676;28;20257;-73
2023/01/11 00:05:55;;;;;;;1.27;1.02;;;;;;;4.50;65.75;94306.91;5079350;28;20196;-74
2023/01/11 00:08:25;;;;;;;0.90;0.90;;;;;;;4.49;65.58;94308.06;5079181;28;20203;-74
2023/01/11 00:10:53;;;;;;;1.15;1.08;;;;;;;4.52;65.77;94308.19;5096645;28;20192;-73
2023/01/11 00:13:21;;;;;;;1.02;0.93;;;;;;;4.54;65.64;94310.59;5078956;28;20200;-73
2023/01/11 00:15:48;;;;;;;0.93;0.93;;;;;;;4.55;65.83;94315.72;5079439;28;20238;-73
2023/01/11 00:18:16;;;;;;;1.00;1.00;;;;;;;4.56;65.20;94300.13;5096623;28;20210;-73
2023/01/11 00:20:44;;;;;;;1.20;1.10;;;;;;;4.59;65.62;94310.38;5077741;28;20216;-73
2023/01/11 00:23:14;;;;;;;1.00;0.98;;;;;;;4.59;64.91;94313.13;5078503;28;20204;-73
2023/01/11 00:25:42;;;;;;;0.95;0.95;;;;;;;4.59;65.00;94303.00;5078407;28;20258;-74
2023/01/11 00:28:10;;;;;;;1.10;1.10;;;;;;;4.62;64.65;94312.47;5078794;28;20189;-74
2023/01/11 00:30:38;;;;;;;1.02;1.02;;;;;;;4.54;64.85;94311.41;5078764;28;20250;-73
2023/01/11 00:33:06;;;;;;;0.95;0.95;;;;;;;4.57;64.80;94312.63;5078070;28;20200;-73
2023/01/11 00:35:34;;;;;;;0.90;0.90;;;;;;;4.58;64.21;94317.78;5078623;28;20210;-73
2023/01/11 00:38:03;;;;;;;0.88;0.88;;;;;;;4.62;64.46;94328.06;5095834;28;20215;-73
2023/01/11 00:40:33;;;;;;;0.80;0.80;;;;;;;4.58;64.07;94328.72;5095960;28;20212;-73
2023/01/11 00:48:33;;;;;;;1.30;1.20;;;;;;;4.66;64.27;94328.97;5096175;28;20203;-73
2023/01/11 00:51:01;;;;;;;1.27;1.17;;;;;;;4.67;64.09;94325.91;5077982;28;20216;-73
2023/01/11 00:53:30;;;;;;;1.27;1.17;;;;;;;4.67;64.47;94334.09;5095495;28;20200;-73
2023/01/11 00:55:59;;;;;;;1.30;1.20;;;;;;;4.65;64.53;94325.44;5077932;28;20236;-73
2023/01/11 00:58:26;;;;;;;1.30;1.20;;;;;;;4.65;64.62;94330.91;5078422;28;20282;-74
2023/01/11 01:00:53;;;;;;;1.73;1.10;;;;;;;4.65;64.56;94327.34;5077622;28;20226;-73
2023/01/11 01:03:21;;;;;;;1.20;1.10;;;;;;;4.66;64.57;94329.78;5077812;28;20517;-73
2023/01/11 01:05:54;;;;;;;1.52;1.20;;;;;;;4.66;64.58;94328.97;5078308;28;20204;-74
2023/01/11 01:08:22;;;;;;;1.27;1.17;;;;;;;4.67;64.36;94330.56;5095622;28;20196;-73
2023/01/11 01:10:51;;;;;;;1.30;1.20;;;;;;;4.66;64.10;94328.97;5077971;28;20200;-73
2023/01/11 01:16:07;;;;;;;1.33;1.13;;;;;;;4.66;64.17;94327.03;5095396;28;20253;-73
2023/01/11 01:18:34;;;;;;;1.00;0.90;;;;;;;4.66;63.35;94328.97;5077618;28;20265;-73
2023/01/11 01:21:02;;;;;;;1.02;0.98;;;;;;;4.65;63.91;94324.63;5077364;28;20660;-73
2023/01/11 01:23:30;;;;;;;0.90;0.90;;;;;;;4.64;63.40;94323.84;5095517;28;20231;-73
2023/01/11 01:25:58;;;;;;;1.75;1.48;;;;;;;4.65;63.95;94330.91;5095660;28;20193;-73
2023/01/11 01:28:27;;;;;;;1.20;1.10;;;;;;;4.68;64.24;94332.16;5095631;28;20192;-73
2023/01/11 01:30:54;;;;;;;1.00;1.00;;;;;;;4.68;64.16;94335.69;5077568;28;20208;-73
2023/01/11 01:33:21;;;;;;;1.58;1.48;;;;;;;4.54;66.86;94337.91;5077455;28;20227;-73
2023/01/11 01:35:50;;;;;;;1.83;1.73;;;;;;;4.32;67.98;94339.00;5095040;28;20643;-73
2023/01/11 01:38:18;;;;;;;3.25;2.97;;;;;;;4.18;69.24;94343.91;5077313;28;20200;-73
2023/01/11 01:40:46;;;;;;;3.92;3.63;;;;;;;4.05;70.07;94345.75;5077589;28;20212;-72
2023/01/11 01:43:15;;;;;;;4.88;4.30;;;;;;;3.96;70.70;94334.88;5077097;28;20549;-73
2023/01/11 01:45:48;;;;;;;4.72;4.22;;;;;;;3.85;71.31;94350.81;5077893;28;20204;-73
2023/01/11 01:48:16;;;;;;;5.00;4.60;;;;;;;3.80;71.46;94353.72;5077206;28;20208;-72
2023/01/11 01:50:48;;;;;;;5.00;4.57;;;;;;;3.75;72.26;94358.56;5077097;28;20620;-73
2023/01/11 01:53:18;;;;;;;5.20;4.70;;;;;;;3.65;72.67;94348.81;5094837;28;20199;-73
2023/01/11 01:55:52;;;;;;;4.90;4.50;;;;;;;3.56;72.85;94356.22;5076978;28;20239;-73
2023/01/11 01:58:23;;;;;;;4.90;4.40;;;;;;;3.48;73.42;94362.50;5077675;28;20204;-73
2023/01/11 02:00:51;;;;;;;5.43;4.93;;;;;;;3.40;73.56;94355.16;5094901;28;20216;-73
2023/01/11 02:03:22;;;;;;;5.07;4.65;;;;;;;3.36;74.04;94353.06;5094700;28;20198;-73
2023/01/11 02:05:52;;;;;;;4.78;4.38;;;;;;;3.40;73.96;94357.88;5095060;28;20200;-74
2023/01/11 02:08:26;;;;;;;4.38;4.00;;;;;;;3.38;74.19;94353.56;5077348;28;20197;-73
2023/01/11 02:10:54;;;;;;;4.45;4.05;;;;;;;3.36;74.29;94358.50;5077200;28;20200;-73
2023/01/11 02:13:22;;;;;;;3.78;3.45;;;;;;;3.32;74.33;94368.47;5077239;28;20613;-74
2023/01/11 02:16:06;;;;;;;4.15;3.75;;;;;;;3.37;74.47;94378.38;5077826;28;20586;-73
2023/01/11 02:18:35;;;;;;;3.97;3.67;;;;;;;3.36;74.74;94382.25;5077320;28;20200;-73
2023/01/11 02:21:12;;;;;;;3.80;3.50;;;;;;;3.38;74.82;94389.00;5076969;28;20239;-73
2023/01/11 02:24:12;;;;;;;3.78;3.47;;;;;;;3.36;74.79;94393.16;5094762;28;20196;-74
2023/01/11 02:27:14;;;;;;;3.40;3.10;;;;;;;3.38;74.99;94401.81;5045756;28;20299;-73
2023/01/11 02:29:55;;;;;;;3.20;2.90;;;;;;;3.38;74.75;94408.06;5094446;28;20212;-74
2023/01/11 02:32:27;;;;;;;3.53;3.33;;;;;;;3.38;74.99;94415.44;5094633;28;20196;-74
2023/01/11 02:35:01;;;;;;;3.38;3.17;;;;;;;3.32;74.85;94411.28;5076712;28;20204;-73
2023/01/11 02:37:37;;;;;;;3.78;3.40;;;;;;;3.32;74.59;94422.19;5094863;28;20202;-73
2023/01/11 02:40:08;;;;;;;4.05;3.75;;;;;;;3.32;74.80;94428.44;5076934;28;20212;-73
2023/01/11 02:45:37;;;;;;;4.28;3.88;;;;;;;3.29;75.24;94433.72;5080658;28;20287;-73
2023/01/11 02:48:12;;;;;;;3.90;3.60;;;;;;;3.32;75.16;94428.44;5080253;28;20689;-74
2023/01/11 02:50:45;;;;;;;4.03;3.72;;;;;;;3.31;75.21;94431.50;5098231;28;20192;-73
2023/01/11 02:53:17;;;;;;;4.60;4.30;;;;;;;3.24;75.40;94431.97;5080232;28;20196;-73
2023/01/11 02:55:47;;;;;;;5.03;4.63;;;;;;;3.28;75.71;94443.03;5079993;28;20290;-73
2023/01/11 02:58:18;;;;;;;5.13;4.72;;;;;;;3.31;75.15;94442.41;5080681;28;20345;-73
2023/01/11 03:00:48;;;;;;;5.07;4.68;;;;;;;3.33;75.66;94443.66;5080229;28;20238;-73
2023/01/11 03:03:16;;;;;;;5.18;4.78;;;;;;;3.38;75.49;94442.72;5080202;28;20201;-74
2023/01/11 03:05:49;;;;;;;5.80;5.30;;;;;;;3.43;75.36;94439.00;5079819;28;20207;-73
2023/01/11 03:08:43;;;;;;;5.68;5.28;;;;;;;3.43;74.82;94445.25;5080604;28;20204;-74
2023/01/11 03:12:50;;;;;;;6.00;5.53;;;;;;;3.42;74.97;94445.59;5079985;28;20212;-73
2023/01/11 03:14:06;;;;;;;5.28;4.97;;;;;;;3.42;75.37;94448.31;5079928;28;20218;-73
2023/01/11 03:16:39;;;;;;;5.78;5.38;;;;;;;3.36;74.66;94448.47;5079975;28;20295;-73
2023/01/11 03:19:18;;;;;;;4.80;4.50;;;;;;;3.37;75.09;94450.06;5080189;28;20203;-74
2023/01/11 03:21:53;;;;;;;5.43;4.93;;;;;;;3.40;75.16;94445.91;5080765;28;20291;-75
2023/01/11 03:24:27;;;;;;;5.10;4.70;;;;;;;3.40;74.57;94453.28;5079943;28;20207;-74
2023/01/11 03:27:03;;;;;;;5.22;4.82;;;;;;;3.41;75.07;94452.94;5079693;28;20737;-74
2023/01/11 03:29:36;;;;;;;4.72;4.43;;;;;;;3.40;75.10;94453.28;5080394;28;20200;-74
2023/01/11 03:32:15;;;;;;;5.03;4.63;;;;;;;3.35;74.91;94446.88;5079589;28;20687;-75
2023/01/11 03:34:48;;;;;;;5.22;4.82;;;;;;;3.36;75.26;94443.03;5079428;28;20215;-74
2023/01/11 03:37:20;;;;;;;5.45;4.95;;;;;;;3.32;74.77;94452.97;5079394;28;20204;-75
2023/01/11 03:39:53;;;;;;;5.38;4.97;;;;;;;3.28;74.92;94452.00;5079499;28;20197;-77
2023/01/11 03:42:23;;;;;;;5.32;4.93;;;;;;;3.31;75.29;94451.38;5079421;28;20224;-74
2023/01/11 03:44:54;;;;;;;5.32;4.93;;;;;;;3.30;74.94;94448.94;5078869;28;20613;-73
2023/01/11 03:47:27;;;;;;;5.10;4.70;;;;;;;3.36;74.81;94445.75;5079645;28;20204;-73
2023/01/11 03:49:59;;;;;;;5.25;4.85;;;;;;;3.38;74.97;94448.97;5078742;28;20504;-73
2023/01/11 03:52:29;;;;;;;5.45;4.95;;;;;;;3.39;74.76;94455.22;5078616;28;20226;-73
2023/01/11 03:54:59;;;;;;;5.30;4.90;;;;;;;3.40;75.07;94451.34;5077253;28;20232;-73
2023/01/11 03:57:31;;;;;;;4.95;4.65;;;;;;;3.43;74.58;94450.72;5078962;28;20204;-74
2023/01/11 04:00:02;;;;;;;4.80;4.50;;;;;;;3.46;74.70;94446.53;5078910;28;20620;-74
2023/01/11 04:02:40;;;;;;;8.77;8.18;;;;;;;3.49;74.70;94459.53;5078350;28;20212;-74
2023/01/11 04:05:11;;;;;;;6.93;6.50;;;;;;;3.48;74.84;94463.38;5078680;28;20541;-75
2023/01/11 04:07:39;;;;;;;5.05;4.72;;;;;;;3.47;75.05;94462.56;5078811;28;20219;-76
2023/01/11 04:10:07;;;;;;;4.97;4.65;;;;;;;3.48;75.18;94461.44;5079468;28;20211;-75
2023/01/11 04:12:40;;;;;;;4.78;4.47;;;;;;;3.53;74.69;94468.66;5079031;28;20196;-73
2023/01/11 04:15:09;;;;;;;4.53;4.22;;;;;;;3.55;74.42;94466.41;5078179;28;20208;-74
2023/01/11 04:17:39;;;;;;;4.57;4.18;;;;;;;3.58;74.33;94474.75;5078416;28;20209;-74
2023/01/11 04:20:08;;;;;;;4.47;4.07;;;;;;;3.60;74.10;94480.69;5078534;28;20201;-73
2023/01/11 04:22:37;;;;;;;4.82;4.47;;;;;;;3.60;74.09;94479.88;5077949;28;20220;-74
2023/01/11 04:25:07;;;;;;;4.57;4.28;;;;;;;3.62;73.40;94477.63;5095764;28;20212;-74
2023/01/11 04:27:35;;;;;;;4.60;4.30;;;;;;;3.65;73.36;94478.91;5078504;28;20220;-73
2023/01/11 04:30:04;;;;;;;4.10;3.80;;;;;;;3.64;73.19;94483.56;5078229;28;20261;-73
2023/01/11 04:32:31;;;;;;;4.20;3.90;;;;;;;3.69;72.99;94477.13;5095805;28;20215;-73
2023/01/11 04:35:03;;;;;;;3.80;3.50;;;;;;;3.68;73.06;94483.72;5095731;28;20636;-73
2023/01/11 04:37:31;;;;;;;3.92;3.58;;;;;;;3.72;73.38;94492.88;5077916;28;20208;-74
2023/01/11 04:39:59;;;;;;;3.53;3.33;;;;;;;3.74;72.55;94490.59;5078581;28;20215;-73
2023/01/11 04:42:25;;;;;;;3.25;3.05;;;;;;;3.77;72.57;94495.41;5077926;28;20235;-73
2023/01/11 04:44:53;;;;;;;3.30;3.10;;;;;;;3.77;72.88;94489.94;5077664;28;20200;-73
2023/01/11 04:47:22;;;;;;;3.95;3.65;;;;;;;3.77;72.16;94495.41;5077647;28;20207;-73
2023/01/11 04:49:50;;;;;;;4.10;3.80;;;;;;;3.76;72.61;94499.28;5077932;28;20219;-73
2023/01/11 04:52:22;;;;;;;5.35;4.95;;;;;;;3.77;72.50;94498.94;5078279;28;20204;-74
2023/01/11 04:54:51;;;;;;;4.00;3.70;;;;;;;3.75;72.73;94506.66;5078006;28;20232;-73
2023/01/11 04:57:19;;;;;;;4.45;4.15;;;;;;;3.73;72.75;94508.09;5077875;28;20250;-74
2023/01/11 04:59:48;;;;;;;5.00;4.60;;;;;;;3.69;73.03;94510.66;5078221;28;20254;-73
2023/01/11 05:02:16;;;;;;;7.05;6.35;;;;;;;3.74;73.00;94512.41;5077672;28;20227;-73
2023/01/11 05:04:44;;;;;;;5.13;4.63;;;;;;;3.76;72.95;94521.09;5077576;28;20219;-73
2023/01/11 05:07:12;;;;;;;4.43;4.13;;;;;;;3.77;72.72;94511.78;5077515;28;20296;-74
2023/01/11 05:09:44;;;;;;;4.28;3.97;;;;;;;3.78;72.89;94513.41;5077523;28;20239;-73
2023/01/11 05:12:12;;;;;;;3.72;3.42;;;;;;;3.77;72.71;94514.50;5095541;28;20207;-73
2023/01/11 05:14:42;;;;;;;3.00;2.80;;;;;;;3.76;72.44;94521.09;5077486;28;20207;-73
2023/01/11 05:17:13;;;;;;;3.20;3.00;;;;;;;3.75;72.66;94527.69;5077411;28;20200;-73
2023/01/11 05:19:41;;;;;;;2.90;2.70;;;;;;;3.74;72.61;94535.06;5077556;28;20200;-73
2023/01/11 05:22:10;;;;;;;2.70;2.50;;;;;;;3.74;72.79;94537.78;5077800;28;20235;-73
2023/01/11 05:24:38;;;;;;;2.95;2.75;;;;;;;3.73;73.22;94541.63;5077746;28;20196;-73
2023/01/11 05:27:08;;;;;;;3.42;3.22;;;;;;;3.71;73.51;94540.38;5077263;28;20208;-74
2023/01/11 05:29:36;;;;;;;3.38;3.13;;;;;;;3.73;73.47;94540.81;5077744;28;20203;-73
2023/01/11 05:32:05;;;;;;;3.13;2.92;;;;;;;3.70;73.08;94541.47;5077526;28;20211;-73
2023/01/11 05:34:32;;;;;;;2.83;2.63;;;;;;;3.73;73.24;94543.56;5077653;28;20203;-74
2023/01/11 05:37:00;;;;;;;3.30;3.10;;;;;;;3.75;73.00;94542.13;5077538;28;20196;-73
2023/01/11 05:39:28;;;;;;;3.10;2.90;;;;;;;3.76;72.72;94549.16;5078295;28;20204;-73
2023/01/11 05:41:55;;;;;;;3.20;3.00;;;;;;;3.79;72.78;94545.00;5077182;28;20220;-73
2023/01/11 05:47:17;;;;;;;4.40;4.10;;;;;;;3.78;72.81;94541.47;5022466;28;20202;-73
2023/01/11 05:49:46;;;;;;;4.40;4.10;;;;;;;3.78;72.49;94549.66;5077245;28;20204;-74
2023/01/11 05:52:15;;;;;;;3.70;3.50;;;;;;;3.80;72.21;94557.50;5077184;28;20204;-74
2023/01/11 05:54:43;;;;;;;3.30;3.10;;;;;;;3.83;72.50;94554.94;5094896;28;20271;-73
2023/01/11 05:57:11;;;;;;;3.10;2.90;;;;;;;3.86;72.12;94561.69;5094815;28;20201;-73
2023/01/11 05:59:40;;;;;;;2.90;2.70;;;;;;;3.91;71.86;94564.22;5077536;28;20208;-74
2023/01/11 06:02:09;;;;;;;2.80;2.60;;;;;;;3.89;71.68;94566.50;5095050;28;20213;-74
2023/01/11 06:04:36;;;;;;;3.72;3.15;;;;;;;3.89;72.07;94562.97;5094650;28;20613;-74
2023/01/11 06:07:05;;;;;;;3.20;3.00;;;;;;;3.86;71.96;94562.47;5077189;28;20208;-73
2023/01/11 06:09:33;;;;;;;3.45;3.20;;;;;;;3.88;72.19;94566.81;5077001;28;20204;-73
2023/01/11 06:12:01;;;;;;;3.53;3.15;;;;;;;3.89;72.19;94569.22;5076922;28;20203;-73
2023/01/11 06:14:28;;;;;;;3.05;2.85;;;;;;;3.91;71.83;94577.06;5077142;28;20200;-73
2023/01/11 06:16:59;;;;;;;3.58;3.38;;;;;;;3.94;71.89;94576.44;5077192;28;20203;-74
2023/01/11 06:19:27;;;;;;;3.30;3.10;;;;;;;3.95;71.39;94578.84;5080789;28;20204;-73
2023/01/11 06:21:55;;;;;;;3.75;3.45;;;;;;;3.97;71.50;94590.25;5081063;28;20647;-74
2023/01/11 06:24:24;;;;;;;3.65;3.35;;;;;;;3.97;71.55;94597.63;5098803;28;20200;-74
2023/01/11 06:26:52;;;;;;;4.05;3.75;;;;;;;3.97;71.63;94597.63;5098532;28;20244;-73
2023/01/11 06:29:20;;;;;;;4.20;3.90;;;;;;;4.01;71.34;94602.09;5080802;28;20209;-73
2023/01/11 06:31:47;;;;;;;4.30;3.90;;;;;;;4.06;71.15;94601.13;5098674;28;20211;-74
2023/01/11 06:34:17;;;;;;;4.15;3.85;;;;;;;4.07;71.56;94602.75;5098364;28;20197;-73
2023/01/11 06:36:45;;;;;;;4.50;4.20;;;;;;;4.08;71.20;94607.09;5080726;28;20204;-73
2023/01/11 06:39:16;;;;;;;3.58;3.38;;;;;;;4.06;71.14;94610.13;5080264;28;20199;-73
2023/01/11 06:41:44;;;;;;;3.03;2.83;;;;;;;4.07;71.08;94617.19;5080723;28;20213;-74
2023/01/11 06:44:12;;;;;;;3.20;3.00;;;;;;;4.09;70.86;94612.22;5080409;28;20558;-73
2023/01/11 06:46:40;;;;;;;2.75;2.55;;;;;;;4.07;70.54;94613.69;5080507;28;20208;-73
2023/01/11 06:49:10;;;;;;;4.85;4.45;;;;;;;4.08;71.29;94616.06;5080658;28;20203;-74
2023/01/11 06:51:40;;;;;;;3.35;3.15;;;;;;;4.07;71.08;94608.22;5079865;28;20204;-74
2023/01/11 06:54:07;;;;;;;3.22;3.00;;;;;;;4.10;70.58;94622.03;5080145;28;20211;-74
2023/01/11 06:56:35;;;;;;;3.72;3.42;;;;;;;4.06;70.19;94626.50;5079908;28;20196;-73
2023/01/11 06:59:03;;;;;;;5.07;4.68;;;;;;;4.06;70.04;94629.22;5080853;28;20189;-73
2023/01/11 07:01:32;;;;;;;4.60;4.05;;;;;;;4.09;70.15;94627.78;5079956;28;20679;-74
2023/01/11 07:04:00;;;;;;;3.97;3.60;;;;;;;4.14;70.34;94624.91;5079809;28;20291;-74
2023/01/11 07:06:31;;;;;;;3.80;3.50;;;;;;;4.18;71.20;94633.25;5080099;28;20659;-73
2023/01/11 07:09:04;;;;;;;3.92;3.63;;;;;;;4.19;70.50;94638.38;5079687;28;20317;-74
2023/01/11 07:11:33;;;;;;;4.70;4.30;;;;;;;4.23;70.67;94638.53;5079856;28;20204;-74
2023/01/11 07:14:02;;;;;;;4.22;3.92;;;;;;;4.23;71.11;94642.06;5079795;28;20205;-74
2023/01/11 07:16:30;;;;;;;4.97;4.55;;;;;;;4.25;71.18;94653.47;5080462;28;20212;-73
2023/01/11 07:18:58;;;;;;;5.75;5.15;;;;;;;4.25;71.09;94660.88;5080094;28;20203;-73
2023/01/11 07:21:27;;;;;;;13.30;9.73;;;;;;;4.26;71.29;94657.00;5079687;28;20577;-73
2023/01/11 07:23:54;;;;;;;14.27;9.93;;;;;;;4.30;71.50;94661.47;5079922;28;20212;-73
2023/01/11 07:26:27;;;;;;;17.83;12.02;;;;;;;4.28;71.13;94668.38;5079504;28;20200;-74
2023/01/11 07:28:55;;;;;;;21.33;13.02;;;;;;;4.24;70.43;94662.78;5079560;28;20200;-73
2023/01/11 07:31:23;;;;;;;16.52;11.77;;;;;;;4.27;70.59;94667.59;5097146;28;20216;-73
2023/01/11 07:33:51;;;;;;;17.40;11.88;;;;;;;4.29;70.90;94673.53;5079590;28;20204;-73
2023/01/11 07:36:17;;;;;;;17.33;10.48;;;;;;;4.28;70.28;94669.19;5079499;28;20211;-74
2023/01/11 07:38:47;;;;;;;10.10;8.27;;;;;;;4.31;70.27;94679.47;5079310;28;20200;-73
2023/01/11 07:44:02;;;;;;;5.60;5.10;;;;;;;4.33;69.71;94684.63;5079407;28;20197;-74
2023/01/11 07:46:30;;;;;;;4.60;4.20;;;;;;;4.38;69.70;94683.66;5078846;28;20208;-73
2023/01/11 07:49:01;;;;;;;2.70;2.50;;;;;;;4.43;69.27;94688.94;5078865;28;20207;-74
2023/01/11 07:51:29;;;;;;;2.63;2.42;;;;;;;4.44;68.94;94687.81;5079434;28;20214;-73
2023/01/11 07:53:56;;;;;;;2.22;2.03;;;;;;;4.43;68.34;94697.94;5079280;28;20628;-73
2023/01/11 07:56:24;;;;;;;2.28;2.08;;;;;;;4.45;68.11;94700.34;5078985;28;20200;-73
2023/01/11 07:58:51;;;;;;;2.00;1.90;;;;;;;4.47;68.16;94704.38;5078870;28;20204;-73
2023/01/11 08:01:24;;;;;;;2.60;2.40;;;;;;;4.48;67.95;94710.63;5079155;28;20192;-74
2023/01/11 08:03:52;;;;;;;2.30;2.10;;;;;;;4.50;67.51;94714.66;5078642;28;20234;-73
2023/01/11 08:06:23;;;;;;;2.40;2.20;;;;;;;4.49;67.93;94713.03;5078716;28;20205;-73
2023/01/11 08:08:51;;;;;;;2.15;1.95;;;;;;;4.54;67.82;94715.59;5078587;28;20207;-73
2023/01/11 08:16:53;;;;;;;3.10;2.90;;;;;;;4.57;68.31;94734.09;5078830;28;20547;-73
2023/01/11 08:19:21;;;;;;;2.90;2.70;;;;;;;4.54;67.84;94728.47;5078617;28;20201;-73
2023/01/11 08:21:49;;;;;;;2.95;2.75;;;;;;;4.55;68.28;94735.53;5078339;28;20192;-73
2023/01/11 08:24:17;;;;;;;3.70;3.40;;;;;;;4.49;67.83;94742.25;5078386;28;20208;-74
2023/01/11 08:26:45;;;;;;;3.95;3.65;;;;;;;4.51;68.71;94748.22;5078113;28;20203;-73
2023/01/11 08:29:16;;;;;;;3.50;3.20;;;;;;;4.53;68.41;94740.50;5078945;28;20207;-73
2023/01/11 08:31:47;;;;;;;3.80;3.50;;;;;;;4.56;68.70;94754.31;5078341;28;20537;-73
2023/01/11 08:34:17;;;;;;;4.05;3.75;;;;;;;4.56;68.81;94756.25;5078344;28;20200;-74
2023/01/11 08:36:48;;;;;;;4.18;3.88;;;;;;;4.56;68.49;94767.97;5078670;28;20204;-74
2023/01/11 08:39:16;;;;;;;5.22;4.72;;;;;;;4.60;68.69;94770.84;5095780;28;20199;-73
2023/01/11 08:41:44;;;;;;;5.85;5.40;;;;;;;4.68;68.58;94770.03;5077402;28;20632;-73
2023/01/11 08:44:12;;;;;;;5.45;4.95;;;;;;;4.70;68.33;94773.25;5078518;28;20200;-73
2023/01/11 08:46:40;;;;;;;3.67;3.38;;;;;;;4.67;67.91;94768.44;5077839;28;20200;-74
2023/01/11 08:49:11;;;;;;;3.95;3.65;;;;;;;4.66;67.24;94766.03;5078708;28;20212;-74
2023/01/11 08:51:41;;;;;;;3.55;3.35;;;;;;;4.66;67.69;94766.84;5078179;28;20208;-74
2023/01/11 08:54:11;;;;;;;3.58;3.28;;;;;;;4.68;67.47;94777.44;5078038;28;20200;-74
2023/01/11 08:56:39;;;;;;;3.78;3.47;;;;;;;4.58;67.22;94770.38;5078049;28;20208;-74
2023/01/11 08:59:09;;;;;;;4.13;3.83;;;;;;;4.59;67.88;94774.72;5077748;28;20201;-74
2023/01/11 09:01:37;;;;;;;4.95;4.45;;;;;;;4.60;68.08;94779.06;5077677;28;20207;-73
2023/01/11 09:04:05;;;;;;;5.10;4.57;;;;;;;4.62;67.39;94782.28;5077736;28;20671;-73
2023/01/11 09:06:33;;;;;;;4.30;3.90;;;;;;;4.58;67.30;94787.56;5077661;28;20196;-73
2023/01/11 09:09:02;;;;;;;5.43;4.93;;;;;;;4.62;67.70;94776.00;5078128;28;20214;-73
2023/01/11 09:14:17;;;;;;;4.07;3.70;;;;;;;5.16;69.21;94785.41;5077374;28;20193;-74
2023/01/11 09:16:45;;;;;;;3.60;3.30;;;;;;;5.58;68.44;94784.78;5077541;28;20201;-74
2023/01/11 09:19:12;;;;;;;4.43;4.13;;;;;;;5.74;66.25;94783.94;5077745;28;20208;-75
2023/01/11 09:21:41;;;;;;;2.45;2.08;;;;;;;5.79;65.32;94793.88;5077661;28;20208;-74
2023/01/11 09:24:10;;;;;;;2.33;2.22;;;;;;;5.85;65.87;94784.38;5077857;28;20289;-74
2023/01/11 09:26:40;;;;;;;2.22;2.13;;;;;;;5.99;65.93;94784.13;5077529;28;20196;-73
2023/01/11 09:29:08;;;;;;;2.30;2.20;;;;;;;6.15;65.66;94785.19;5077934;28;20204;-73
2023/01/11 09:31:35;;;;;;;2.15;1.95;;;;;;;6.23;64.26;94780.78;5077574;28;20203;-73
2023/01/11 09:34:03;;;;;;;2.13;2.00;;;;;;;6.16;63.34;94789.53;5077649;28;20210;-74
2023/01/11 09:36:34;;;;;;;2.60;2.40;;;;;;;6.10;64.17;94796.34;5077231;28;20193;-74
2023/01/11 09:39:06;;;;;;;2.22;2.03;;;;;;;6.01;63.44;94799.09;5078104;28;20536;-73
2023/01/11 09:42:14;;;;;;;3.30;3.08;;;;;;;6.00;63.10;94793.97;5077253;28;20208;-74
2023/01/11 09:44:49;;;;;;;2.60;2.40;;;;;;;5.92;63.44;94792.91;5077348;28;20203;-73
2023/01/11 09:47:24;;;;;;;2.03;1.90;;;;;;;5.85;62.86;94795.31;5077682;28;20630;-73
2023/01/11 09:49:55;;;;;;;1.63;1.52;;;;;;;5.78;63.15;94792.28;5077462;28;20617;-74
2023/01/11 09:52:27;;;;;;;2.30;2.10;;;;;;;5.76;63.50;94794.53;5077655;28;20207;-73
2023/01/11 09:54:56;;;;;;;1.98;1.85;;;;;;;5.79;63.29;94793.88;5081541;28;20259;-73
2023/01/11 09:57:38;;;;;;;1.50;1.40;;;;;;;5.80;63.14;94790.00;5081032;28;20628;-72
2023/01/11 10:00:13;;;;;;;2.03;1.92;;;;;;;5.75;63.18;94795.69;5080890;28;20208;-73
2023/01/11 10:02:51;;;;;;;1.90;1.80;;;;;;;5.79;63.56;94800.16;5080869;28;20222;-74
2023/01/11 10:05:41;;;;;;;2.00;1.90;;;;;;;5.76;62.81;94800.81;5081018;28;20299;-74
2023/01/11 10:08:26;;;;;;;1.80;1.70;;;;;;;5.71;63.66;94787.31;5081118;28;20601;-73
2023/01/11 10:11:02;;;;;;;1.90;1.80;;;;;;;5.72;63.57;94790.84;5080834;28;20691;-73
2023/01/11 10:13:44;;;;;;;1.50;1.40;;;;;;;5.74;62.54;94797.63;5081256;28;20299;-74
2023/01/11 10:16:21;;;;;;;1.17;1.15;;;;;;;5.78;62.77;94798.56;5080863;28;20204;-73
2023/01/11 10:19:19;;;;;;;1.42;1.33;;;;;;;5.84;62.63;94798.38;5081550;28;20203;-73
2023/01/11 10:21:52;;;;;;;1.60;1.50;;;;;;;5.84;62.34;94792.88;5080613;28;20224;-73
2023/01/11 10:24:27;;;;;;;1.55;1.45;;;;;;;5.81;62.25;94797.09;5080853;28;20315;-74
2023/01/11 10:27:02;;;;;;;1.67;1.58;;;;;;;5.76;61.99;94797.28;5081089;28;20206;-73
2023/01/11 10:29:44;;;;;;;1.42;1.33;;;;;;;5.77;62.19;94798.88;5080977;28;20203;-74
2023/01/11 10:35:28;;;;;;;1.60;1.50;;;;;;;5.62;61.57;94796.69;5078327;28;20532;-73
2023/01/11 10:38:27;;;;;;;1.63;1.52;;;;;;;5.61;62.33;94787.69;5080937;28;20196;-74
2023/01/11 10:41:07;;;;;;;1.80;1.70;;;;;;;5.60;62.47;94790.75;5081031;28;20204;-73
2023/01/11 10:43:39;;;;;;;1.50;1.40;;;;;;;5.60;62.98;94782.56;5080741;28;20337;-74
2023/01/11 10:46:11;;;;;;;1.98;1.50;;;;;;;5.65;62.79;94783.16;5080676;28;20552;-75
2023/01/11 10:48:41;;;;;;;1.90;1.70;;;;;;;5.69;62.96;94786.03;5080954;28;20299;-74
2023/01/11 10:51:18;;;;;;;1.90;1.80;;;;;;;5.67;62.94;94797.31;5098427;28;20192;-74
2023/01/11 10:53:58;;;;;;;1.80;1.70;;;;;;;5.66;63.14;94789.44;5097995;28;20635;-73
2023/01/11 10:56:36;;;;;;;2.00;1.90;;;;;;;5.60;62.68;94775.13;5079994;28;20295;-74
2023/01/11 10:59:15;;;;;;;1.67;1.58;;;;;;;5.61;62.24;94779.47;5080796;28;20200;-74
2023/01/11 11:01:53;;;;;;;1.98;1.88;;;;;;;5.63;63.49;94782.69;5080525;28;20544;-74
2023/01/11 11:04:41;;;;;;;1.67;1.58;;;;;;;5.70;63.06;94780.25;5079427;28;20227;-74
2023/01/11 11:07:15;;;;;;;1.60;1.50;;;;;;;5.78;62.63;94778.59;5080202;28;20262;-74
2023/01/11 11:09:50;;;;;;;1.70;1.60;;;;;;;5.86;62.91;94782.44;5080147;28;20612;-74
2023/01/11 11:12:22;;;;;;;2.60;2.40;;;;;;;5.91;62.86;94772.06;5080418;28;20211;-73
2023/01/11 11:14:56;;;;;;;2.70;2.50;;;;;;;5.98;62.70;94777.88;5080837;28;20216;-74
2023/01/11 11:17:31;;;;;;;2.67;2.40;;;;;;;6.02;63.03;94772.53;5080051;28;20239;-74
2023/01/11 11:20:01;;;;;;;1.80;1.70;;;;;;;6.08;62.63;94773.16;5079940;28;20203;-73
2023/01/11 11:22:29;;;;;;;1.70;1.60;;;;;;;6.14;61.62;94774.56;5080081;28;20210;-73
2023/01/11 11:25:00;;;;;;;1.80;1.70;;;;;;;6.20;61.27;94775.97;5079983;28;20628;-74
2023/01/11 11:27:32;;;;;;;1.60;1.50;;;;;;;6.22;61.39;94771.78;5080051;28;20212;-74
2023/01/11 11:30:02;;;;;;;2.10;1.90;;;;;;;6.18;59.96;94767.28;5080222;28;20239;-73
2023/01/11 11:32:34;;;;;;;1.67;1.58;;;;;;;6.10;60.44;94768.97;5079520;28;20291;-74
2023/01/11 11:35:02;;;;;;;2.28;2.08;;;;;;;6.05;60.38;94773.81;5080325;28;20197;-74
2023/01/11 11:37:32;;;;;;;2.20;2.00;;;;;;;5.94;60.11;94776.13;5079771;28;20631;-73
2023/01/11 11:40:00;;;;;;;2.45;2.22;;;;;;;5.86;60.59;94776.94;5079276;28;20208;-74
2023/01/11 11:42:28;;;;;;;2.60;2.40;;;;;;;5.86;61.57;94790.63;5079548;28;20208;-74
2023/01/11 11:45:20;;;;;;;2.15;2.05;;;;;;;5.84;61.63;94787.41;5079753;28;20224;-74
2023/01/11 11:48:06;;;;;;;2.92;2.60;;;;;;;5.88;61.92;94791.09;5059534;28;20216;-74
2023/01/11 11:50:35;;;;;;;3.95;3.08;;;;;;;5.87;61.29;94795.78;5077212;28;20208;-73
2023/01/11 11:53:04;;;;;;;3.00;2.70;;;;;;;5.91;61.49;94796.72;5079608;28;20572;-73
2023/01/11 11:55:34;;;;;;;2.53;2.33;;;;;;;5.92;61.89;94802.97;5078980;28;20243;-73
2023/01/11 11:58:05;;;;;;;2.38;2.20;;;;;;;6.01;61.37;94788.16;5079176;28;20197;-73
2023/01/11 12:00:33;;;;;;;1.90;1.80;;;;;;;5.98;60.47;94801.69;5079783;28;20204;-73
2023/01/11 12:03:04;;;;;;;2.08;1.98;;;;;;;5.98;60.59;94796.22;5097678;28;20595;-74
2023/01/11 12:05:34;;;;;;;1.80;1.70;;;;;;;5.98;61.46;94793.50;5079530;28;20197;-74
2023/01/11 12:08:03;;;;;;;2.10;2.00;;;;;;;6.00;61.57;94797.50;5079479;28;20204;-74
2023/01/11 12:10:32;;;;;;;2.40;2.20;;;;;;;5.97;61.82;94800.91;5079538;28;20200;-74
2023/01/11 12:13:02;;;;;;;2.08;1.98;;;;;;;5.94;61.94;94807.03;5079227;28;20208;-74
2023/01/11 12:15:32;;;;;;;2.58;2.22;;;;;;;5.85;62.31;94803.53;5077876;28;20210;-74
2023/01/11 12:18:23;;;;;;;2.63;2.50;;;;;;;5.82;63.49;94811.59;5078650;28;20192;-73
2023/01/11 12:20:57;;;;;;;2.65;2.45;;;;;;;5.84;63.26;94812.84;5079493;28;20330;-74
2023/01/11 12:23:26;;;;;;;2.53;2.33;;;;;;;5.78;63.68;94814.19;5078738;28;20224;-74
2023/01/11 12:26:21;;;;;;;2.60;2.40;;;;;;;5.74;63.79;94815.97;5078818;28;20208;-74
2023/01/11 12:29:06;;;;;;;2.70;2.50;;;;;;;5.68;63.42;94815.34;5024539;28;20596;-73